sensor_id;sensor_type;location;lat;lon;timestamp;temperature;humidity
23069;DHT22;11702;50.856;4.348;2022-10-16T00:00:28;13.90;99.90
23069;DHT22;11702;50.856;4.348;2022-10-16T00:02:54;14.00;99.90
23069;DHT22;11702;50.856;4.348;2022-10-16T00:05:20;14.00;99.90
23069;DHT22;11702;50.856;4.348;2022-10-16T00:07:46;13.90;99.90
23069;DHT22;11702;50.856;4.348;2022-10-16T00:10:12;13.90;99.90
23069;DHT22;11702;50.856;4.348;2022-10-16T00:12:37;13.90;99.90
23069;DHT22;11702;50.856;4.348;2022-10-16T00:15:03;13.90;99.90
23069;DHT22;11702;50.856;4.348;2022-10-16T00:17:30;13.90;99.90
23069;DHT22;11702;50.856;4.348;2022-10-16T00:19:56;14.00;99.90
23069;DHT22;11702;50.856;4.348;2022-10-16T00:22:22;13.90;99.90
23069;DHT22;11702;50.856;4.348;2022-10-16T00:24:48;13.90;99.90
23069;DHT22;11702;50.856;4.348;2022-10-16T00:27:13;13.80;99.90
23069;DHT22;11702;50.856;4.348;2022-10-16T00:29:39;13.70;99.90
23069;DHT22;11702;50.856;4.348;2022-10-16T00:32:04;13.90;99.90
23069;DHT22;11702;50.856;4.348;2022-10-16T00:34:32;13.70;99.90
23069;DHT22;11702;50.856;4.348;2022-10-16T00:36:57;13.70;99.90
23069;DHT22;11702;50.856;4.348;2022-10-16T00:39:23;13.70;99.90
23069;DHT22;11702;50.856;4.348;2022-10-16T00:41:50;13.70;99.90
23069;DHT22;11702;50.856;4.348;2022-10-16T00:44:48;13.70;99.90
23069;DHT22;11702;50.856;4.348;2022-10-16T00:47:26;13.60;99.90
23069;DHT22;11702;50.856;4.348;2022-10-16T00:49:58;13.60;99.90
23069;DHT22;11702;50.856;4.348;2022-10-16T00:52:25;13.60;99.90
23069;DHT22;11702;50.856;4.348;2022-10-16T00:54:52;13.60;99.90
23069;DHT22;11702;50.856;4.348;2022-10-16T00:57:19;13.50;99.90
23069;DHT22;11702;50.856;4.348;2022-10-16T00:59:46;13.50;99.90
23069;DHT22;11702;50.856;4.348;2022-10-16T01:02:33;13.40;99.90
23069;DHT22;11702;50.856;4.348;2022-10-16T01:05:41;13.40;99.90
23069;DHT22;11702;50.856;4.348;2022-10-16T01:08:17;13.50;99.90
23069;DHT22;11702;50.856;4.348;2022-10-16T01:10:58;13.40;99.90
23069;DHT22;11702;50.856;4.348;2022-10-16T01:13:37;13.40;99.90
23069;DHT22;11702;50.856;4.348;2022-10-16T01:16:24;13.40;99.90
23069;DHT22;11702;50.856;4.348;2022-10-16T01:19:16;13.40;99.90
23069;DHT22;11702;50.856;4.348;2022-10-16T01:21:47;13.30;99.90
23069;DHT22;11702;50.856;4.348;2022-10-16T01:24:38;13.30;99.90
23069;DHT22;11702;50.856;4.348;2022-10-16T01:27:16;13.40;99.90
23069;DHT22;11702;50.856;4.348;2022-10-16T01:30:07;13.30;99.90
23069;DHT22;11702;50.856;4.348;2022-10-16T01:32:48;13.30;99.90
23069;DHT22;11702;50.856;4.348;2022-10-16T01:35:22;13.30;99.90
23069;DHT22;11702;50.856;4.348;2022-10-16T01:40:24;13.20;99.90
23069;DHT22;11702;50.856;4.348;2022-10-16T01:43:12;13.20;99.90
23069;DHT22;11702;50.856;4.348;2022-10-16T01:45:41;13.20;99.90
23069;DHT22;11702;50.856;4.348;2022-10-16T01:48:07;13.30;99.90
23069;DHT22;11702;50.856;4.348;2022-10-16T01:50:38;13.20;99.90
23069;DHT22;11702;50.856;4.348;2022-10-16T01:53:07;13.20;99.90
23069;DHT22;11702;50.856;4.348;2022-10-16T01:55:40;13.20;99.90
23069;DHT22;11702;50.856;4.348;2022-10-16T01:58:11;13.20;99.90
23069;DHT22;11702;50.856;4.348;2022-10-16T02:00:38;13.40;99.90
23069;DHT22;11702;50.856;4.348;2022-10-16T02:03:06;13.30;99.90
23069;DHT22;11702;50.856;4.348;2022-10-16T02:05:38;13.30;99.90
23069;DHT22;11702;50.856;4.348;2022-10-16T02:08:06;13.30;99.90
23069;DHT22;11702;50.856;4.348;2022-10-16T02:10:32;13.20;99.90
23069;DHT22;11702;50.856;4.348;2022-10-16T02:13:29;13.20;99.90
23069;DHT22;11702;50.856;4.348;2022-10-16T02:15:55;13.20;99.90
23069;DHT22;11702;50.856;4.348;2022-10-16T02:18:21;13.30;99.90
23069;DHT22;11702;50.856;4.348;2022-10-16T02:20:55;13.40;99.90
23069;DHT22;11702;50.856;4.348;2022-10-16T02:23:43;13.40;99.90
23069;DHT22;11702;50.856;4.348;2022-10-16T02:26:15;13.40;99.90
23069;DHT22;11702;50.856;4.348;2022-10-16T02:28:48;13.40;99.90
23069;DHT22;11702;50.856;4.348;2022-10-16T02:31:23;13.40;99.90
23069;DHT22;11702;50.856;4.348;2022-10-16T02:33:53;13.40;99.90
23069;DHT22;11702;50.856;4.348;2022-10-16T02:36:20;13.30;99.90
23069;DHT22;11702;50.856;4.348;2022-10-16T02:38:46;13.30;99.90
23069;DHT22;11702;50.856;4.348;2022-10-16T02:41:13;13.30;99.90
23069;DHT22;11702;50.856;4.348;2022-10-16T02:43:39;13.20;99.90
23069;DHT22;11702;50.856;4.348;2022-10-16T02:46:05;13.20;99.90
23069;DHT22;11702;50.856;4.348;2022-10-16T02:48:30;13.20;99.90
23069;DHT22;11702;50.856;4.348;2022-10-16T02:50:56;13.20;99.90
23069;DHT22;11702;50.856;4.348;2022-10-16T02:53:22;13.20;99.90
23069;DHT22;11702;50.856;4.348;2022-10-16T02:55:48;13.20;99.90
23069;DHT22;11702;50.856;4.348;2022-10-16T02:58:13;13.10;99.90
23069;DHT22;11702;50.856;4.348;2022-10-16T03:00:40;13.30;99.90
23069;DHT22;11702;50.856;4.348;2022-10-16T03:03:07;13.20;99.90
23069;DHT22;11702;50.856;4.348;2022-10-16T03:05:32;13.30;99.90
23069;DHT22;11702;50.856;4.348;2022-10-16T03:07:58;13.30;99.90
23069;DHT22;11702;50.856;4.348;2022-10-16T03:10:26;13.30;99.90
23069;DHT22;11702;50.856;4.348;2022-10-16T03:12:51;13.30;99.90
23069;DHT22;11702;50.856;4.348;2022-10-16T03:15:17;13.30;99.90
23069;DHT22;11702;50.856;4.348;2022-10-16T03:17:43;13.40;99.90
23069;DHT22;11702;50.856;4.348;2022-10-16T03:20:09;13.40;99.90
23069;DHT22;11702;50.856;4.348;2022-10-16T03:22:35;13.30;99.90
23069;DHT22;11702;50.856;4.348;2022-10-16T03:25:00;13.30;99.90
23069;DHT22;11702;50.856;4.348;2022-10-16T03:27:26;13.30;99.90
23069;DHT22;11702;50.856;4.348;2022-10-16T03:29:51;13.20;99.90
23069;DHT22;11702;50.856;4.348;2022-10-16T03:32:17;13.30;99.90
23069;DHT22;11702;50.856;4.348;2022-10-16T03:34:43;13.30;99.90
23069;DHT22;11702;50.856;4.348;2022-10-16T03:37:09;13.30;99.90
23069;DHT22;11702;50.856;4.348;2022-10-16T03:39:35;13.20;99.90
23069;DHT22;11702;50.856;4.348;2022-10-16T03:42:00;13.20;99.90
23069;DHT22;11702;50.856;4.348;2022-10-16T03:44:26;13.20;99.90
23069;DHT22;11702;50.856;4.348;2022-10-16T03:46:51;13.20;99.90
23069;DHT22;11702;50.856;4.348;2022-10-16T03:49:17;13.20;99.90
23069;DHT22;11702;50.856;4.348;2022-10-16T03:51:42;13.30;99.90
23069;DHT22;11702;50.856;4.348;2022-10-16T03:54:10;13.30;99.90
23069;DHT22;11702;50.856;4.348;2022-10-16T03:56:35;13.40;99.90
23069;DHT22;11702;50.856;4.348;2022-10-16T03:59:01;13.20;99.90
23069;DHT22;11702;50.856;4.348;2022-10-16T04:01:27;13.20;99.90
23069;DHT22;11702;50.856;4.348;2022-10-16T04:03:53;13.30;99.90
23069;DHT22;11702;50.856;4.348;2022-10-16T04:06:19;13.50;99.90
23069;DHT22;11702;50.856;4.348;2022-10-16T04:08:45;13.50;99.90
23069;DHT22;11702;50.856;4.348;2022-10-16T04:11:12;13.40;99.90
23069;DHT22;11702;50.856;4.348;2022-10-16T04:13:37;13.40;99.90
23069;DHT22;11702;50.856;4.348;2022-10-16T04:16:03;13.40;99.90
23069;DHT22;11702;50.856;4.348;2022-10-16T04:18:29;13.40;99.90
23069;DHT22;11702;50.856;4.348;2022-10-16T04:20:54;13.60;99.90
23069;DHT22;11702;50.856;4.348;2022-10-16T04:23:20;13.40;99.90
23069;DHT22;11702;50.856;4.348;2022-10-16T04:25:48;13.40;99.90
23069;DHT22;11702;50.856;4.348;2022-10-16T04:28:13;13.30;99.90
23069;DHT22;11702;50.856;4.348;2022-10-16T04:30:39;13.30;99.90
23069;DHT22;11702;50.856;4.348;2022-10-16T04:33:05;13.40;99.90
23069;DHT22;11702;50.856;4.348;2022-10-16T04:35:30;13.30;99.90
23069;DHT22;11702;50.856;4.348;2022-10-16T04:37:59;13.20;99.90
23069;DHT22;11702;50.856;4.348;2022-10-16T04:40:24;13.20;99.90
23069;DHT22;11702;50.856;4.348;2022-10-16T04:42:50;13.20;99.90
23069;DHT22;11702;50.856;4.348;2022-10-16T04:45:16;13.10;99.90
23069;DHT22;11702;50.856;4.348;2022-10-16T04:47:41;13.20;99.90
23069;DHT22;11702;50.856;4.348;2022-10-16T04:50:07;13.10;99.90
23069;DHT22;11702;50.856;4.348;2022-10-16T04:52:33;13.10;99.90
23069;DHT22;11702;50.856;4.348;2022-10-16T04:54:59;13.10;99.90
23069;DHT22;11702;50.856;4.348;2022-10-16T04:57:28;13.10;99.90
23069;DHT22;11702;50.856;4.348;2022-10-16T04:59:54;13.10;99.90
23069;DHT22;11702;50.856;4.348;2022-10-16T05:02:19;13.10;99.90
23069;DHT22;11702;50.856;4.348;2022-10-16T05:04:45;13.20;99.90
23069;DHT22;11702;50.856;4.348;2022-10-16T05:07:11;13.20;99.90
23069;DHT22;11702;50.856;4.348;2022-10-16T05:09:36;13.10;99.90
23069;DHT22;11702;50.856;4.348;2022-10-16T05:12:02;13.00;99.90
23069;DHT22;11702;50.856;4.348;2022-10-16T05:14:29;12.90;99.90
23069;DHT22;11702;50.856;4.348;2022-10-16T05:16:54;12.90;99.90
23069;DHT22;11702;50.856;4.348;2022-10-16T05:19:20;12.90;99.90
23069;DHT22;11702;50.856;4.348;2022-10-16T05:21:45;12.90;99.90
23069;DHT22;11702;50.856;4.348;2022-10-16T05:24:11;12.80;99.90
23069;DHT22;11702;50.856;4.348;2022-10-16T05:26:37;13.00;99.90
23069;DHT22;11702;50.856;4.348;2022-10-16T05:29:02;13.00;99.90
23069;DHT22;11702;50.856;4.348;2022-10-16T05:31:28;12.90;99.90
23069;DHT22;11702;50.856;4.348;2022-10-16T05:34:00;12.90;99.90
23069;DHT22;11702;50.856;4.348;2022-10-16T05:36:26;12.80;99.90
23069;DHT22;11702;50.856;4.348;2022-10-16T05:38:52;12.80;99.90
23069;DHT22;11702;50.856;4.348;2022-10-16T05:41:18;12.80;99.90
23069;DHT22;11702;50.856;4.348;2022-10-16T05:43:50;12.80;99.90
23069;DHT22;11702;50.856;4.348;2022-10-16T05:46:16;12.70;99.90
23069;DHT22;11702;50.856;4.348;2022-10-16T05:48:42;12.70;99.90
23069;DHT22;11702;50.856;4.348;2022-10-16T05:51:11;12.70;99.90
23069;DHT22;11702;50.856;4.348;2022-10-16T05:53:38;12.70;99.90
23069;DHT22;11702;50.856;4.348;2022-10-16T05:56:06;12.60;99.90
23069;DHT22;11702;50.856;4.348;2022-10-16T05:58:34;12.70;99.90
23069;DHT22;11702;50.856;4.348;2022-10-16T06:01:05;12.70;99.90
23069;DHT22;11702;50.856;4.348;2022-10-16T06:03:33;12.80;99.90
23069;DHT22;11702;50.856;4.348;2022-10-16T06:05:59;12.70;99.90
23069;DHT22;11702;50.856;4.348;2022-10-16T06:08:25;12.70;99.90
23069;DHT22;11702;50.856;4.348;2022-10-16T06:11:04;12.70;99.90
23069;DHT22;11702;50.856;4.348;2022-10-16T06:13:31;12.80;99.90
23069;DHT22;11702;50.856;4.348;2022-10-16T06:16:00;12.80;99.90
23069;DHT22;11702;50.856;4.348;2022-10-16T06:18:27;12.90;99.90
23069;DHT22;11702;50.856;4.348;2022-10-16T06:20:54;12.80;99.90
23069;DHT22;11702;50.856;4.348;2022-10-16T06:23:20;12.90;99.90
23069;DHT22;11702;50.856;4.348;2022-10-16T06:25:46;12.80;99.90
23069;DHT22;11702;50.856;4.348;2022-10-16T06:28:13;12.90;99.90
23069;DHT22;11702;50.856;4.348;2022-10-16T06:30:40;12.90;99.90
23069;DHT22;11702;50.856;4.348;2022-10-16T06:33:05;13.00;99.90
23069;DHT22;11702;50.856;4.348;2022-10-16T06:35:31;13.00;99.90
23069;DHT22;11702;50.856;4.348;2022-10-16T06:37:57;13.00;99.90
23069;DHT22;11702;50.856;4.348;2022-10-16T06:40:23;13.10;99.90
23069;DHT22;11702;50.856;4.348;2022-10-16T06:42:49;13.30;99.90
23069;DHT22;11702;50.856;4.348;2022-10-16T06:45:15;13.30;99.90
23069;DHT22;11702;50.856;4.348;2022-10-16T06:47:41;13.40;99.90
23069;DHT22;11702;50.856;4.348;2022-10-16T06:50:07;13.30;99.90
23069;DHT22;11702;50.856;4.348;2022-10-16T06:52:33;13.40;99.90
23069;DHT22;11702;50.856;4.348;2022-10-16T06:54:59;13.50;99.90
23069;DHT22;11702;50.856;4.348;2022-10-16T06:57:25;13.60;99.90
23069;DHT22;11702;50.856;4.348;2022-10-16T06:59:51;13.70;99.90
23069;DHT22;11702;50.856;4.348;2022-10-16T07:02:16;13.60;99.90
23069;DHT22;11702;50.856;4.348;2022-10-16T07:04:42;13.70;99.90
23069;DHT22;11702;50.856;4.348;2022-10-16T07:07:08;13.70;99.90
23069;DHT22;11702;50.856;4.348;2022-10-16T07:09:33;13.70;99.90
23069;DHT22;11702;50.856;4.348;2022-10-16T07:11:59;13.70;99.90
23069;DHT22;11702;50.856;4.348;2022-10-16T07:14:24;13.80;99.90
23069;DHT22;11702;50.856;4.348;2022-10-16T07:16:50;13.90;99.90
23069;DHT22;11702;50.856;4.348;2022-10-16T07:19:16;13.90;99.90
23069;DHT22;11702;50.856;4.348;2022-10-16T07:21:43;14.00;99.90
23069;DHT22;11702;50.856;4.348;2022-10-16T07:24:15;13.90;99.90
23069;DHT22;11702;50.856;4.348;2022-10-16T07:26:42;14.10;99.90
23069;DHT22;11702;50.856;4.348;2022-10-16T07:29:14;14.00;99.90
23069;DHT22;11702;50.856;4.348;2022-10-16T07:31:41;13.90;99.90
23069;DHT22;11702;50.856;4.348;2022-10-16T07:34:20;13.90;99.90
23069;DHT22;11702;50.856;4.348;2022-10-16T07:37:13;13.90;99.90
23069;DHT22;11702;50.856;4.348;2022-10-16T07:39:40;14.00;99.90
23069;DHT22;11702;50.856;4.348;2022-10-16T07:42:06;14.10;99.90
23069;DHT22;11702;50.856;4.348;2022-10-16T07:44:33;14.20;99.90
23069;DHT22;11702;50.856;4.348;2022-10-16T07:46:58;14.20;99.90
23069;DHT22;11702;50.856;4.348;2022-10-16T07:49:24;14.20;99.90
23069;DHT22;11702;50.856;4.348;2022-10-16T07:51:49;14.20;99.90
23069;DHT22;11702;50.856;4.348;2022-10-16T07:54:15;14.30;99.90
23069;DHT22;11702;50.856;4.348;2022-10-16T07:56:41;14.40;99.90
23069;DHT22;11702;50.856;4.348;2022-10-16T07:59:07;14.50;99.90
23069;DHT22;11702;50.856;4.348;2022-10-16T08:01:32;14.50;99.90
23069;DHT22;11702;50.856;4.348;2022-10-16T08:03:58;14.60;99.90
23069;DHT22;11702;50.856;4.348;2022-10-16T08:06:24;14.60;99.90
23069;DHT22;11702;50.856;4.348;2022-10-16T08:08:49;14.70;99.90
23069;DHT22;11702;50.856;4.348;2022-10-16T08:11:17;14.80;99.90
23069;DHT22;11702;50.856;4.348;2022-10-16T08:13:45;14.80;99.90
23069;DHT22;11702;50.856;4.348;2022-10-16T08:16:11;14.90;99.90
23069;DHT22;11702;50.856;4.348;2022-10-16T08:18:38;14.90;99.90
23069;DHT22;11702;50.856;4.348;2022-10-16T08:21:05;14.90;99.90
23069;DHT22;11702;50.856;4.348;2022-10-16T08:23:32;15.00;99.90
23069;DHT22;11702;50.856;4.348;2022-10-16T08:26:06;15.10;99.90
23069;DHT22;11702;50.856;4.348;2022-10-16T08:28:32;15.10;99.90
23069;DHT22;11702;50.856;4.348;2022-10-16T08:31:11;15.20;99.90
23069;DHT22;11702;50.856;4.348;2022-10-16T08:33:47;15.20;99.90
23069;DHT22;11702;50.856;4.348;2022-10-16T08:36:43;15.40;99.90
23069;DHT22;11702;50.856;4.348;2022-10-16T08:39:09;15.40;99.90
23069;DHT22;11702;50.856;4.348;2022-10-16T08:41:57;15.50;99.90
23069;DHT22;11702;50.856;4.348;2022-10-16T08:47:26;15.70;99.90
23069;DHT22;11702;50.856;4.348;2022-10-16T08:50:10;15.60;99.90
23069;DHT22;11702;50.856;4.348;2022-10-16T08:52:40;15.70;99.90
23069;DHT22;11702;50.856;4.348;2022-10-16T08:55:06;15.70;99.90
23069;DHT22;11702;50.856;4.348;2022-10-16T08:57:32;15.90;99.90
23069;DHT22;11702;50.856;4.348;2022-10-16T09:00:05;15.90;99.90
23069;DHT22;11702;50.856;4.348;2022-10-16T09:02:40;16.20;99.90
23069;DHT22;11702;50.856;4.348;2022-10-16T09:05:46;16.40;99.90
23069;DHT22;11702;50.856;4.348;2022-10-16T09:08:36;16.50;99.90
23069;DHT22;11702;50.856;4.348;2022-10-16T09:11:29;16.60;99.90
23069;DHT22;11702;50.856;4.348;2022-10-16T09:17:18;16.70;99.90
23069;DHT22;11702;50.856;4.348;2022-10-16T09:19:56;16.80;99.90
23069;DHT22;11702;50.856;4.348;2022-10-16T09:22:27;17.10;99.90
23069;DHT22;11702;50.856;4.348;2022-10-16T09:24:56;17.00;99.90
23069;DHT22;11702;50.856;4.348;2022-10-16T09:27:24;17.00;99.90
23069;DHT22;11702;50.856;4.348;2022-10-16T09:29:51;17.10;99.90
23069;DHT22;11702;50.856;4.348;2022-10-16T09:32:20;17.20;99.90
23069;DHT22;11702;50.856;4.348;2022-10-16T09:34:50;17.20;99.90
23069;DHT22;11702;50.856;4.348;2022-10-16T09:37:19;17.10;99.90
23069;DHT22;11702;50.856;4.348;2022-10-16T09:39:50;17.30;99.90
23069;DHT22;11702;50.856;4.348;2022-10-16T09:42:34;17.40;99.90
23069;DHT22;11702;50.856;4.348;2022-10-16T09:45:02;17.60;99.90
23069;DHT22;11702;50.856;4.348;2022-10-16T09:47:30;17.50;99.90
23069;DHT22;11702;50.856;4.348;2022-10-16T09:50:02;17.60;99.90
23069;DHT22;11702;50.856;4.348;2022-10-16T09:52:30;17.60;99.90
23069;DHT22;11702;50.856;4.348;2022-10-16T09:55:01;17.60;99.90
23069;DHT22;11702;50.856;4.348;2022-10-16T09:57:27;17.80;99.90
23069;DHT22;11702;50.856;4.348;2022-10-16T09:59:54;17.90;99.90
23069;DHT22;11702;50.856;4.348;2022-10-16T10:02:36;18.00;99.90
23069;DHT22;11702;50.856;4.348;2022-10-16T10:05:05;18.20;99.90
23069;DHT22;11702;50.856;4.348;2022-10-16T10:07:42;18.30;99.90
23069;DHT22;11702;50.856;4.348;2022-10-16T10:10:23;18.20;99.90
23069;DHT22;11702;50.856;4.348;2022-10-16T10:12:50;18.20;99.90
23069;DHT22;11702;50.856;4.348;2022-10-16T10:15:15;18.20;99.90
23069;DHT22;11702;50.856;4.348;2022-10-16T10:17:57;18.20;99.90
23069;DHT22;11702;50.856;4.348;2022-10-16T10:22:54;18.50;99.90
23069;DHT22;11702;50.856;4.348;2022-10-16T10:28:10;18.50;99.90
23069;DHT22;11702;50.856;4.348;2022-10-16T10:31:09;18.50;99.90
23069;DHT22;11702;50.856;4.348;2022-10-16T10:33:59;18.50;99.90
23069;DHT22;11702;50.856;4.348;2022-10-16T10:36:36;18.80;99.90
23069;DHT22;11702;50.856;4.348;2022-10-16T10:49:51;19.50;99.90
23069;DHT22;11702;50.856;4.348;2022-10-16T10:55:08;19.80;99.90
23069;DHT22;11702;50.856;4.348;2022-10-16T10:57:51;19.60;99.90
23069;DHT22;11702;50.856;4.348;2022-10-16T11:03:27;19.30;99.90
23069;DHT22;11702;50.856;4.348;2022-10-16T11:09:02;19.10;99.90
23069;DHT22;11702;50.856;4.348;2022-10-16T11:12:00;19.30;99.90
23069;DHT22;11702;50.856;4.348;2022-10-16T11:17:15;19.50;99.90
23069;DHT22;11702;50.856;4.348;2022-10-16T11:20:02;19.60;99.90
23069;DHT22;11702;50.856;4.348;2022-10-16T11:25:26;19.50;99.90
23069;DHT22;11702;50.856;4.348;2022-10-16T11:30:30;19.40;99.90
23069;DHT22;11702;50.856;4.348;2022-10-16T11:35:56;19.20;99.90
23069;DHT22;11702;50.856;4.348;2022-10-16T11:41:42;19.50;99.90
23069;DHT22;11702;50.856;4.348;2022-10-16T11:47:17;20.00;99.90
23069;DHT22;11702;50.856;4.348;2022-10-16T11:49:45;20.20;99.90
23069;DHT22;11702;50.856;4.348;2022-10-16T11:52:33;20.20;99.90
23069;DHT22;11702;50.856;4.348;2022-10-16T11:55:23;20.00;99.90
23069;DHT22;11702;50.856;4.348;2022-10-16T11:57:59;19.70;99.90
23069;DHT22;11702;50.856;4.348;2022-10-16T12:00:40;19.60;99.90
23069;DHT22;11702;50.856;4.348;2022-10-16T12:08:45;19.60;99.90
23069;DHT22;11702;50.856;4.348;2022-10-16T12:11:35;19.70;99.90
23069;DHT22;11702;50.856;4.348;2022-10-16T12:16:56;20.10;99.90
23069;DHT22;11702;50.856;4.348;2022-10-16T12:19:24;20.40;99.90
23069;DHT22;11702;50.856;4.348;2022-10-16T12:21:51;20.30;99.90
23069;DHT22;11702;50.856;4.348;2022-10-16T12:26:58;20.20;99.90
23069;DHT22;11702;50.856;4.348;2022-10-16T12:32:02;20.00;99.90
23069;DHT22;11702;50.856;4.348;2022-10-16T12:34:37;20.10;99.90
23069;DHT22;11702;50.856;4.348;2022-10-16T12:37:18;20.20;99.90
23069;DHT22;11702;50.856;4.348;2022-10-16T12:39:47;20.20;99.90
23069;DHT22;11702;50.856;4.348;2022-10-16T12:44:55;20.80;99.90
23069;DHT22;11702;50.856;4.348;2022-10-16T12:52:52;21.10;99.90
23069;DHT22;11702;50.856;4.348;2022-10-16T12:55:20;21.20;99.90
23069;DHT22;11702;50.856;4.348;2022-10-16T12:58:09;21.20;99.90
23069;DHT22;11702;50.856;4.348;2022-10-16T13:00:45;21.40;99.90
23069;DHT22;11702;50.856;4.348;2022-10-16T13:03:30;21.40;99.90
23069;DHT22;11702;50.856;4.348;2022-10-16T13:06:23;21.50;99.90
23069;DHT22;11702;50.856;4.348;2022-10-16T13:22:42;21.70;99.90
23069;DHT22;11702;50.856;4.348;2022-10-16T13:30:25;21.80;99.90
23069;DHT22;11702;50.856;4.348;2022-10-16T13:33:01;21.90;99.90
23069;DHT22;11702;50.856;4.348;2022-10-16T13:35:30;21.50;99.90
23069;DHT22;11702;50.856;4.348;2022-10-16T13:38:23;21.40;99.90
23069;DHT22;11702;50.856;4.348;2022-10-16T13:41:33;21.70;99.90
23069;DHT22;11702;50.856;4.348;2022-10-16T13:43:50;21.50;99.90
23069;DHT22;11702;50.856;4.348;2022-10-16T13:46:22;21.40;99.90
23069;DHT22;11702;50.856;4.348;2022-10-16T13:48:59;21.20;99.90
23069;DHT22;11702;50.856;4.348;2022-10-16T13:51:26;21.20;99.90
23069;DHT22;11702;50.856;4.348;2022-10-16T13:53:54;21.20;99.90
23069;DHT22;11702;50.856;4.348;2022-10-16T13:56:22;21.30;99.90
23069;DHT22;11702;50.856;4.348;2022-10-16T13:59:22;21.20;99.90
23069;DHT22;11702;50.856;4.348;2022-10-16T14:01:44;21.10;99.90
23069;DHT22;11702;50.856;4.348;2022-10-16T14:04:11;21.20;99.90
23069;DHT22;11702;50.856;4.348;2022-10-16T14:06:41;21.20;99.90
23069;DHT22;11702;50.856;4.348;2022-10-16T14:09:24;21.00;99.90
23069;DHT22;11702;50.856;4.348;2022-10-16T14:11:57;20.90;99.90
23069;DHT22;11702;50.856;4.348;2022-10-16T14:14:24;20.80;99.90
23069;DHT22;11702;50.856;4.348;2022-10-16T14:16:52;20.70;99.90
23069;DHT22;11702;50.856;4.348;2022-10-16T14:19:28;20.60;99.90
23069;DHT22;11702;50.856;4.348;2022-10-16T14:21:54;20.50;99.90
23069;DHT22;11702;50.856;4.348;2022-10-16T14:26:55;20.70;99.90
23069;DHT22;11702;50.856;4.348;2022-10-16T14:29:23;20.60;99.90
23069;DHT22;11702;50.856;4.348;2022-10-16T14:32:03;20.70;99.90
23069;DHT22;11702;50.856;4.348;2022-10-16T14:37:00;20.60;99.90
23069;DHT22;11702;50.856;4.348;2022-10-16T14:39:30;20.40;99.90
23069;DHT22;11702;50.856;4.348;2022-10-16T14:41:57;20.40;99.90
23069;DHT22;11702;50.856;4.348;2022-10-16T14:44:31;20.40;99.90
23069;DHT22;11702;50.856;4.348;2022-10-16T14:46:58;20.40;99.90
23069;DHT22;11702;50.856;4.348;2022-10-16T14:49:25;20.20;99.90
23069;DHT22;11702;50.856;4.348;2022-10-16T14:51:51;20.10;99.90
23069;DHT22;11702;50.856;4.348;2022-10-16T14:54:18;20.10;99.90
23069;DHT22;11702;50.856;4.348;2022-10-16T14:56:51;20.20;99.90
23069;DHT22;11702;50.856;4.348;2022-10-16T14:59:29;20.20;99.90
23069;DHT22;11702;50.856;4.348;2022-10-16T15:01:55;20.10;99.90
23069;DHT22;11702;50.856;4.348;2022-10-16T15:04:21;20.10;99.90
23069;DHT22;11702;50.856;4.348;2022-10-16T15:06:47;19.90;99.90
23069;DHT22;11702;50.856;4.348;2022-10-16T15:09:12;20.00;99.90
23069;DHT22;11702;50.856;4.348;2022-10-16T15:11:38;20.00;99.90
23069;DHT22;11702;50.856;4.348;2022-10-16T15:14:04;20.00;99.90
23069;DHT22;11702;50.856;4.348;2022-10-16T15:16:31;19.90;99.90
23069;DHT22;11702;50.856;4.348;2022-10-16T15:18:57;19.70;99.90
23069;DHT22;11702;50.856;4.348;2022-10-16T15:21:29;19.60;99.90
23069;DHT22;11702;50.856;4.348;2022-10-16T15:23:55;19.50;99.90
23069;DHT22;11702;50.856;4.348;2022-10-16T15:26:23;19.50;99.90
23069;DHT22;11702;50.856;4.348;2022-10-16T15:28:48;19.50;99.90
23069;DHT22;11702;50.856;4.348;2022-10-16T15:31:14;19.50;99.90
23069;DHT22;11702;50.856;4.348;2022-10-16T15:33:40;19.60;99.90
23069;DHT22;11702;50.856;4.348;2022-10-16T15:36:06;19.40;99.90
23069;DHT22;11702;50.856;4.348;2022-10-16T15:38:31;19.40;99.90
23069;DHT22;11702;50.856;4.348;2022-10-16T15:40:57;19.40;99.90
23069;DHT22;11702;50.856;4.348;2022-10-16T15:43:22;19.40;99.90
23069;DHT22;11702;50.856;4.348;2022-10-16T15:46:03;19.40;99.90
23069;DHT22;11702;50.856;4.348;2022-10-16T15:48:29;19.50;99.90
23069;DHT22;11702;50.856;4.348;2022-10-16T15:50:55;19.20;99.90
23069;DHT22;11702;50.856;4.348;2022-10-16T15:53:21;19.20;99.90
23069;DHT22;11702;50.856;4.348;2022-10-16T15:55:46;19.00;99.90
23069;DHT22;11702;50.856;4.348;2022-10-16T15:58:12;19.10;99.90
23069;DHT22;11702;50.856;4.348;2022-10-16T16:00:37;19.00;99.90
23069;DHT22;11702;50.856;4.348;2022-10-16T16:03:04;19.00;99.90
23069;DHT22;11702;50.856;4.348;2022-10-16T16:05:29;19.00;99.90
23069;DHT22;11702;50.856;4.348;2022-10-16T16:07:56;18.80;99.90
23069;DHT22;11702;50.856;4.348;2022-10-16T16:10:22;18.80;99.90
23069;DHT22;11702;50.856;4.348;2022-10-16T16:12:48;18.80;99.90
23069;DHT22;11702;50.856;4.348;2022-10-16T16:15:19;18.80;99.90
23069;DHT22;11702;50.856;4.348;2022-10-16T16:17:45;18.70;99.90
23069;DHT22;11702;50.856;4.348;2022-10-16T16:20:10;18.50;99.90
23069;DHT22;11702;50.856;4.348;2022-10-16T16:22:36;18.40;99.90
23069;DHT22;11702;50.856;4.348;2022-10-16T16:25:02;18.40;99.90
23069;DHT22;11702;50.856;4.348;2022-10-16T16:27:27;18.40;99.90
23069;DHT22;11702;50.856;4.348;2022-10-16T16:29:55;18.50;99.90
23069;DHT22;11702;50.856;4.348;2022-10-16T16:32:21;18.50;99.90
23069;DHT22;11702;50.856;4.348;2022-10-16T16:34:46;18.50;99.90
23069;DHT22;11702;50.856;4.348;2022-10-16T16:37:12;18.50;99.90
23069;DHT22;11702;50.856;4.348;2022-10-16T16:39:38;18.30;99.90
23069;DHT22;11702;50.856;4.348;2022-10-16T16:42:03;18.30;99.90
23069;DHT22;11702;50.856;4.348;2022-10-16T16:44:31;18.30;99.90
23069;DHT22;11702;50.856;4.348;2022-10-16T16:46:57;18.20;99.90
23069;DHT22;11702;50.856;4.348;2022-10-16T16:49:23;18.30;99.90
23069;DHT22;11702;50.856;4.348;2022-10-16T16:51:48;18.20;99.90
23069;DHT22;11702;50.856;4.348;2022-10-16T16:54:14;18.30;99.90
23069;DHT22;11702;50.856;4.348;2022-10-16T16:56:41;18.40;99.90
23069;DHT22;11702;50.856;4.348;2022-10-16T16:59:17;18.40;99.90
23069;DHT22;11702;50.856;4.348;2022-10-16T17:01:45;18.50;99.90
23069;DHT22;11702;50.856;4.348;2022-10-16T17:04:10;18.60;99.90
23069;DHT22;11702;50.856;4.348;2022-10-16T17:06:37;18.50;99.90
23069;DHT22;11702;50.856;4.348;2022-10-16T17:09:04;18.20;99.90
23069;DHT22;11702;50.856;4.348;2022-10-16T17:11:31;17.90;99.90
23069;DHT22;11702;50.856;4.348;2022-10-16T17:13:58;17.70;99.90
23069;DHT22;11702;50.856;4.348;2022-10-16T17:16:27;17.30;99.90
23069;DHT22;11702;50.856;4.348;2022-10-16T17:18:53;17.10;99.90
23069;DHT22;11702;50.856;4.348;2022-10-16T17:21:19;17.00;99.90
23069;DHT22;11702;50.856;4.348;2022-10-16T17:23:45;16.90;99.90